sensor_id;sensor_type;location;lat;lon;timestamp;P1;durP1;ratioP1;P2;durP2;ratioP2
59504;SDS011;45321;53.200;5.814;2023-09-08T00:01:50;10.88;;;7.88;;
59504;SDS011;45321;53.200;5.814;2023-09-08T00:04:16;10.25;;;7.65;;
59504;SDS011;45321;53.200;5.814;2023-09-08T00:06:45;9.07;;;8.05;;
59504;SDS011;45321;53.200;5.814;2023-09-08T00:09:11;10.98;;;8.15;;
59504;SDS011;45321;53.200;5.814;2023-09-08T00:11:36;9.82;;;8.02;;
59504;SDS011;45321;53.200;5.814;2023-09-08T00:14:02;9.05;;;8.05;;
59504;SDS011;45321;53.200;5.814;2023-09-08T00:16:29;8.38;;;7.47;;
59504;SDS011;45321;53.200;5.814;2023-09-08T00:18:55;8.85;;;7.45;;
59504;SDS011;45321;53.200;5.814;2023-09-08T00:21:22;11.13;;;8.18;;
59504;SDS011;45321;53.200;5.814;2023-09-08T00:23:48;9.75;;;8.10;;
59504;SDS011;45321;53.200;5.814;2023-09-08T00:26:13;9.65;;;8.02;;
59504;SDS011;45321;53.200;5.814;2023-09-08T00:28:39;9.70;;;8.20;;
59504;SDS011;45321;53.200;5.814;2023-09-08T00:31:05;11.38;;;7.95;;
59504;SDS011;45321;53.200;5.814;2023-09-08T00:33:31;10.50;;;8.10;;
59504;SDS011;45321;53.200;5.814;2023-09-08T00:35:56;11.52;;;8.35;;
59504;SDS011;45321;53.200;5.814;2023-09-08T00:38:22;11.02;;;8.43;;
59504;SDS011;45321;53.200;5.814;2023-09-08T00:40:48;9.77;;;8.13;;
59504;SDS011;45321;53.200;5.814;2023-09-08T00:43:14;11.05;;;7.97;;
59504;SDS011;45321;53.200;5.814;2023-09-08T00:45:41;9.45;;;8.20;;
59504;SDS011;45321;53.200;5.814;2023-09-08T00:48:08;9.35;;;7.72;;
59504;SDS011;45321;53.200;5.814;2023-09-08T00:50:35;10.80;;;7.90;;
59504;SDS011;45321;53.200;5.814;2023-09-08T00:53:05;9.20;;;8.23;;
59504;SDS011;45321;53.200;5.814;2023-09-08T00:55:32;11.80;;;7.93;;
59504;SDS011;45321;53.200;5.814;2023-09-08T00:57:58;10.63;;;8.20;;
59504;SDS011;45321;53.200;5.814;2023-09-08T01:00:25;9.70;;;8.38;;
59504;SDS011;45321;53.200;5.814;2023-09-08T01:02:51;9.90;;;8.10;;
59504;SDS011;45321;53.200;5.814;2023-09-08T01:05:19;9.18;;;7.65;;
59504;SDS011;45321;53.200;5.814;2023-09-08T01:07:45;12.57;;;8.13;;
59504;SDS011;45321;53.200;5.814;2023-09-08T01:10:12;10.65;;;7.65;;
59504;SDS011;45321;53.200;5.814;2023-09-08T01:12:38;9.27;;;7.95;;
59504;SDS011;45321;53.200;5.814;2023-09-08T01:15:05;8.85;;;7.95;;
59504;SDS011;45321;53.200;5.814;2023-09-08T01:17:31;12.02;;;8.55;;
59504;SDS011;45321;53.200;5.814;2023-09-08T01:20:05;9.02;;;8.20;;
59504;SDS011;45321;53.200;5.814;2023-09-08T01:22:55;8.77;;;7.88;;
59504;SDS011;45321;53.200;5.814;2023-09-08T01:26:04;11.80;;;8.90;;
59504;SDS011;45321;53.200;5.814;2023-09-08T01:28:33;10.07;;;8.55;;
59504;SDS011;45321;53.200;5.814;2023-09-08T01:30:59;11.80;;;8.70;;
59504;SDS011;45321;53.200;5.814;2023-09-08T01:33:25;9.43;;;8.40;;
59504;SDS011;45321;53.200;5.814;2023-09-08T01:35:52;14.45;;;9.15;;
59504;SDS011;45321;53.200;5.814;2023-09-08T01:38:18;11.25;;;8.32;;
59504;SDS011;45321;53.200;5.814;2023-09-08T01:40:44;11.93;;;9.20;;
59504;SDS011;45321;53.200;5.814;2023-09-08T01:43:09;11.15;;;9.05;;
59504;SDS011;45321;53.200;5.814;2023-09-08T01:45:35;11.18;;;8.30;;
59504;SDS011;45321;53.200;5.814;2023-09-08T01:48:01;12.57;;;8.45;;
59504;SDS011;45321;53.200;5.814;2023-09-08T01:50:27;10.13;;;8.00;;
59504;SDS011;45321;53.200;5.814;2023-09-08T01:52:52;9.43;;;8.45;;
59504;SDS011;45321;53.200;5.814;2023-09-08T01:55:18;11.48;;;8.93;;
59504;SDS011;45321;53.200;5.814;2023-09-08T01:57:45;12.13;;;9.05;;
59504;SDS011;45321;53.200;5.814;2023-09-08T02:00:11;9.23;;;8.27;;
59504;SDS011;45321;53.200;5.814;2023-09-08T02:02:38;10.43;;;9.00;;
59504;SDS011;45321;53.200;5.814;2023-09-08T02:05:03;11.88;;;8.95;;
59504;SDS011;45321;53.200;5.814;2023-09-08T02:07:30;9.32;;;8.32;;
59504;SDS011;45321;53.200;5.814;2023-09-08T02:09:56;11.15;;;8.57;;
59504;SDS011;45321;53.200;5.814;2023-09-08T02:12:22;11.70;;;9.05;;
59504;SDS011;45321;53.200;5.814;2023-09-08T02:14:47;12.60;;;8.40;;
59504;SDS011;45321;53.200;5.814;2023-09-08T02:17:13;10.27;;;9.07;;
59504;SDS011;45321;53.200;5.814;2023-09-08T02:19:39;11.18;;;9.30;;
59504;SDS011;45321;53.200;5.814;2023-09-08T02:22:05;10.40;;;8.95;;
59504;SDS011;45321;53.200;5.814;2023-09-08T02:24:31;9.80;;;8.85;;
59504;SDS011;45321;53.200;5.814;2023-09-08T02:26:56;12.05;;;8.70;;
59504;SDS011;45321;53.200;5.814;2023-09-08T02:29:22;10.70;;;9.23;;
59504;SDS011;45321;53.200;5.814;2023-09-08T02:31:48;10.38;;;9.18;;
59504;SDS011;45321;53.200;5.814;2023-09-08T02:34:14;11.15;;;9.15;;
59504;SDS011;45321;53.200;5.814;2023-09-08T02:36:40;11.02;;;9.18;;
59504;SDS011;45321;53.200;5.814;2023-09-08T02:39:06;10.70;;;9.43;;
59504;SDS011;45321;53.200;5.814;2023-09-08T02:41:32;9.68;;;8.77;;
59504;SDS011;45321;53.200;5.814;2023-09-08T02:43:58;10.65;;;9.65;;
59504;SDS011;45321;53.200;5.814;2023-09-08T02:46:24;10.60;;;9.55;;
59504;SDS011;45321;53.200;5.814;2023-09-08T02:48:51;9.93;;;9.00;;
59504;SDS011;45321;53.200;5.814;2023-09-08T02:51:17;11.50;;;9.80;;
59504;SDS011;45321;53.200;5.814;2023-09-08T02:53:43;12.02;;;9.90;;
59504;SDS011;45321;53.200;5.814;2023-09-08T02:56:09;10.85;;;9.75;;
59504;SDS011;45321;53.200;5.814;2023-09-08T02:58:35;12.00;;;9.70;;
59504;SDS011;45321;53.200;5.814;2023-09-08T03:01:10;14.05;;;9.65;;
59504;SDS011;45321;53.200;5.814;2023-09-08T03:03:38;12.05;;;9.98;;
59504;SDS011;45321;53.200;5.814;2023-09-08T03:06:04;10.80;;;9.70;;
59504;SDS011;45321;53.200;5.814;2023-09-08T03:08:30;12.95;;;9.65;;
59504;SDS011;45321;53.200;5.814;2023-09-08T03:10:56;12.02;;;10.20;;
59504;SDS011;45321;53.200;5.814;2023-09-08T03:13:23;12.30;;;10.68;;
59504;SDS011;45321;53.200;5.814;2023-09-08T03:15:51;10.45;;;9.55;;
59504;SDS011;45321;53.200;5.814;2023-09-08T03:18:17;12.45;;;9.95;;
59504;SDS011;45321;53.200;5.814;2023-09-08T03:20:43;14.05;;;10.13;;
59504;SDS011;45321;53.200;5.814;2023-09-08T03:23:12;12.77;;;10.52;;
59504;SDS011;45321;53.200;5.814;2023-09-08T03:25:38;11.82;;;10.30;;
59504;SDS011;45321;53.200;5.814;2023-09-08T03:28:04;15.02;;;10.30;;
59504;SDS011;45321;53.200;5.814;2023-09-08T03:30:29;11.90;;;10.68;;
59504;SDS011;45321;53.200;5.814;2023-09-08T03:32:55;11.40;;;10.15;;
59504;SDS011;45321;53.200;5.814;2023-09-08T03:35:21;11.82;;;10.43;;
59504;SDS011;45321;53.200;5.814;2023-09-08T03:37:46;11.57;;;10.45;;
59504;SDS011;45321;53.200;5.814;2023-09-08T03:40:12;13.02;;;10.23;;
59504;SDS011;45321;53.200;5.814;2023-09-08T03:42:38;13.13;;;10.50;;
59504;SDS011;45321;53.200;5.814;2023-09-08T03:45:06;11.57;;;9.95;;
59504;SDS011;45321;53.200;5.814;2023-09-08T03:47:32;12.95;;;10.65;;
59504;SDS011;45321;53.200;5.814;2023-09-08T03:49:58;12.00;;;10.68;;
59504;SDS011;45321;53.200;5.814;2023-09-08T03:52:24;12.85;;;11.02;;
59504;SDS011;45321;53.200;5.814;2023-09-08T03:54:50;14.80;;;10.85;;
59504;SDS011;45321;53.200;5.814;2023-09-08T03:57:15;11.95;;;10.27;;
59504;SDS011;45321;53.200;5.814;2023-09-08T03:59:41;12.40;;;10.65;;
59504;SDS011;45321;53.200;5.814;2023-09-08T04:02:07;12.15;;;10.90;;
59504;SDS011;45321;53.200;5.814;2023-09-08T04:04:33;12.23;;;10.82;;
59504;SDS011;45321;53.200;5.814;2023-09-08T04:06:58;11.90;;;10.80;;
59504;SDS011;45321;53.200;5.814;2023-09-08T04:09:26;12.27;;;11.07;;
59504;SDS011;45321;53.200;5.814;2023-09-08T04:11:53;11.95;;;10.75;;
59504;SDS011;45321;53.200;5.814;2023-09-08T04:14:20;13.98;;;10.40;;
59504;SDS011;45321;53.200;5.814;2023-09-08T04:16:48;14.35;;;11.20;;
59504;SDS011;45321;53.200;5.814;2023-09-08T04:19:14;12.27;;;11.07;;
59504;SDS011;45321;53.200;5.814;2023-09-08T04:21:40;12.77;;;10.80;;
59504;SDS011;45321;53.200;5.814;2023-09-08T04:24:06;12.43;;;11.20;;
59504;SDS011;45321;53.200;5.814;2023-09-08T04:26:32;13.90;;;10.57;;
59504;SDS011;45321;53.200;5.814;2023-09-08T04:28:58;12.32;;;10.60;;
59504;SDS011;45321;53.200;5.814;2023-09-08T04:31:23;13.00;;;11.02;;
59504;SDS011;45321;53.200;5.814;2023-09-08T04:33:49;12.50;;;10.55;;
59504;SDS011;45321;53.200;5.814;2023-09-08T04:36:15;14.05;;;11.23;;
59504;SDS011;45321;53.200;5.814;2023-09-08T04:38:41;11.98;;;10.40;;
59504;SDS011;45321;53.200;5.814;2023-09-08T04:41:06;13.27;;;11.98;;
59504;SDS011;45321;53.200;5.814;2023-09-08T04:43:32;12.23;;;11.00;;
59504;SDS011;45321;53.200;5.814;2023-09-08T04:45:58;12.32;;;11.02;;
59504;SDS011;45321;53.200;5.814;2023-09-08T04:48:24;12.75;;;11.45;;
59504;SDS011;45321;53.200;5.814;2023-09-08T04:50:50;11.40;;;10.30;;
59504;SDS011;45321;53.200;5.814;2023-09-08T04:53:16;12.95;;;11.27;;
59504;SDS011;45321;53.200;5.814;2023-09-08T04:55:42;12.40;;;11.10;;
59504;SDS011;45321;53.200;5.814;2023-09-08T04:58:08;12.43;;;11.23;;
59504;SDS011;45321;53.200;5.814;2023-09-08T05:00:34;14.98;;;11.38;;
59504;SDS011;45321;53.200;5.814;2023-09-08T05:03:00;13.38;;;11.48;;
59504;SDS011;45321;53.200;5.814;2023-09-08T05:05:26;12.15;;;10.90;;
59504;SDS011;45321;53.200;5.814;2023-09-08T05:07:51;12.32;;;11.13;;
59504;SDS011;45321;53.200;5.814;2023-09-08T05:10:21;13.82;;;11.13;;
59504;SDS011;45321;53.200;5.814;2023-09-08T05:12:50;13.73;;;11.32;;
59504;SDS011;45321;53.200;5.814;2023-09-08T05:15:16;12.40;;;11.18;;
59504;SDS011;45321;53.200;5.814;2023-09-08T05:17:45;11.95;;;10.75;;
59504;SDS011;45321;53.200;5.814;2023-09-08T05:20:11;13.15;;;11.43;;
59504;SDS011;45321;53.200;5.814;2023-09-08T05:22:37;11.60;;;10.60;;
59504;SDS011;45321;53.200;5.814;2023-09-08T05:25:03;12.48;;;11.18;;
59504;SDS011;45321;53.200;5.814;2023-09-08T05:27:29;13.35;;;10.98;;
59504;SDS011;45321;53.200;5.814;2023-09-08T05:29:56;13.18;;;11.45;;
59504;SDS011;45321;53.200;5.814;2023-09-08T05:32:22;13.38;;;10.57;;
59504;SDS011;45321;53.200;5.814;2023-09-08T05:34:49;14.23;;;11.88;;
59504;SDS011;45321;53.200;5.814;2023-09-08T05:37:14;13.80;;;11.10;;
59504;SDS011;45321;53.200;5.814;2023-09-08T05:39:40;14.10;;;12.73;;
59504;SDS011;45321;53.200;5.814;2023-09-08T05:42:06;13.50;;;12.05;;
59504;SDS011;45321;53.200;5.814;2023-09-08T05:44:33;12.40;;;11.27;;
59504;SDS011;45321;53.200;5.814;2023-09-08T05:46:58;12.00;;;10.85;;
59504;SDS011;45321;53.200;5.814;2023-09-08T05:49:24;13.38;;;11.75;;
59504;SDS011;45321;53.200;5.814;2023-09-08T05:51:50;11.90;;;10.65;;
59504;SDS011;45321;53.200;5.814;2023-09-08T05:54:16;17.00;;;10.70;;
59504;SDS011;45321;53.200;5.814;2023-09-08T05:56:41;11.85;;;10.55;;
59504;SDS011;45321;53.200;5.814;2023-09-08T05:59:07;14.65;;;11.68;;
59504;SDS011;45321;53.200;5.814;2023-09-08T06:01:33;11.73;;;10.48;;
59504;SDS011;45321;53.200;5.814;2023-09-08T06:03:58;11.82;;;10.15;;
59504;SDS011;45321;53.200;5.814;2023-09-08T06:06:24;13.02;;;11.35;;
59504;SDS011;45321;53.200;5.814;2023-09-08T06:08:50;11.45;;;10.30;;
59504;SDS011;45321;53.200;5.814;2023-09-08T06:11:16;15.27;;;10.50;;
59504;SDS011;45321;53.200;5.814;2023-09-08T06:13:42;13.18;;;11.82;;
59504;SDS011;45321;53.200;5.814;2023-09-08T06:16:07;12.18;;;10.95;;
59504;SDS011;45321;53.200;5.814;2023-09-08T06:18:33;12.10;;;10.93;;
59504;SDS011;45321;53.200;5.814;2023-09-08T06:21:05;12.40;;;11.13;;
59504;SDS011;45321;53.200;5.814;2023-09-08T06:23:32;12.77;;;11.50;;
59504;SDS011;45321;53.200;5.814;2023-09-08T06:25:59;13.13;;;10.93;;
59504;SDS011;45321;53.200;5.814;2023-09-08T06:28:25;12.30;;;10.90;;
59504;SDS011;45321;53.200;5.814;2023-09-08T06:30:53;12.30;;;11.00;;
59504;SDS011;45321;53.200;5.814;2023-09-08T06:33:19;13.10;;;11.68;;
59504;SDS011;45321;53.200;5.814;2023-09-08T06:35:45;12.50;;;11.02;;
59504;SDS011;45321;53.200;5.814;2023-09-08T06:38:12;12.20;;;10.73;;
59504;SDS011;45321;53.200;5.814;2023-09-08T06:40:37;12.57;;;11.38;;
59504;SDS011;45321;53.200;5.814;2023-09-08T06:43:03;12.38;;;10.07;;
59504;SDS011;45321;53.200;5.814;2023-09-08T06:45:29;12.65;;;11.07;;
59504;SDS011;45321;53.200;5.814;2023-09-08T06:47:55;12.20;;;10.57;;
59504;SDS011;45321;53.200;5.814;2023-09-08T06:50:23;13.07;;;11.13;;
59504;SDS011;45321;53.200;5.814;2023-09-08T06:52:49;12.55;;;11.30;;
59504;SDS011;45321;53.200;5.814;2023-09-08T06:55:16;11.48;;;10.32;;
59504;SDS011;45321;53.200;5.814;2023-09-08T06:57:42;11.70;;;10.60;;
59504;SDS011;45321;53.200;5.814;2023-09-08T07:00:08;14.07;;;10.68;;
59504;SDS011;45321;53.200;5.814;2023-09-08T07:02:37;11.18;;;10.05;;
59504;SDS011;45321;53.200;5.814;2023-09-08T07:05:03;12.10;;;10.20;;
59504;SDS011;45321;53.200;5.814;2023-09-08T07:07:36;11.48;;;10.38;;
59504;SDS011;45321;53.200;5.814;2023-09-08T07:10:03;14.32;;;11.20;;
59504;SDS011;45321;53.200;5.814;2023-09-08T07:12:29;11.70;;;10.45;;
59504;SDS011;45321;53.200;5.814;2023-09-08T07:14:55;12.60;;;11.40;;
59504;SDS011;45321;53.200;5.814;2023-09-08T07:17:21;13.02;;;11.38;;
59504;SDS011;45321;53.200;5.814;2023-09-08T07:19:50;11.77;;;10.63;;
59504;SDS011;45321;53.200;5.814;2023-09-08T07:22:16;14.88;;;11.00;;
59504;SDS011;45321;53.200;5.814;2023-09-08T07:24:42;13.00;;;9.88;;
59504;SDS011;45321;53.200;5.814;2023-09-08T07:27:09;11.18;;;10.18;;
59504;SDS011;45321;53.200;5.814;2023-09-08T07:29:35;13.27;;;11.38;;
59504;SDS011;45321;53.200;5.814;2023-09-08T07:32:01;15.75;;;10.23;;
59504;SDS011;45321;53.200;5.814;2023-09-08T07:34:26;12.80;;;10.88;;
59504;SDS011;45321;53.200;5.814;2023-09-08T07:36:52;16.45;;;10.57;;
59504;SDS011;45321;53.200;5.814;2023-09-08T07:39:18;25.45;;;13.63;;
59504;SDS011;45321;53.200;5.814;2023-09-08T07:41:43;16.33;;;11.40;;
59504;SDS011;45321;53.200;5.814;2023-09-08T07:44:09;15.45;;;11.20;;
59504;SDS011;45321;53.200;5.814;2023-09-08T07:46:35;13.80;;;11.10;;
59504;SDS011;45321;53.200;5.814;2023-09-08T07:49:01;14.80;;;10.70;;
59504;SDS011;45321;53.200;5.814;2023-09-08T07:51:26;13.40;;;10.43;;
59504;SDS011;45321;53.200;5.814;2023-09-08T07:53:53;12.70;;;10.88;;
59504;SDS011;45321;53.200;5.814;2023-09-08T07:56:19;14.60;;;10.63;;
59504;SDS011;45321;53.200;5.814;2023-09-08T07:58:44;14.00;;;10.57;;
59504;SDS011;45321;53.200;5.814;2023-09-08T08:01:10;14.27;;;10.52;;
59504;SDS011;45321;53.200;5.814;2023-09-08T08:03:38;11.25;;;10.10;;
59504;SDS011;45321;53.200;5.814;2023-09-08T08:06:03;11.23;;;10.07;;
59504;SDS011;45321;53.200;5.814;2023-09-08T08:08:30;15.63;;;10.10;;
59504;SDS011;45321;53.200;5.814;2023-09-08T08:10:56;12.15;;;10.30;;
59504;SDS011;45321;53.200;5.814;2023-09-08T08:13:22;11.90;;;10.52;;
59504;SDS011;45321;53.200;5.814;2023-09-08T08:15:48;12.63;;;9.60;;
59504;SDS011;45321;53.200;5.814;2023-09-08T08:18:14;12.05;;;10.60;;
59504;SDS011;45321;53.200;5.814;2023-09-08T08:20:40;13.10;;;11.23;;
59504;SDS011;45321;53.200;5.814;2023-09-08T08:23:06;12.07;;;10.75;;
59504;SDS011;45321;53.200;5.814;2023-09-08T08:25:32;13.02;;;11.05;;
59504;SDS011;45321;53.200;5.814;2023-09-08T08:27:58;10.98;;;9.85;;
59504;SDS011;45321;53.200;5.814;2023-09-08T08:30:26;13.80;;;10.65;;
59504;SDS011;45321;53.200;5.814;2023-09-08T08:32:52;12.90;;;11.45;;
59504;SDS011;45321;53.200;5.814;2023-09-08T08:35:18;10.95;;;9.77;;
59504;SDS011;45321;53.200;5.814;2023-09-08T08:37:45;12.30;;;10.88;;
59504;SDS011;45321;53.200;5.814;2023-09-08T08:40:11;15.82;;;11.02;;
59504;SDS011;45321;53.200;5.814;2023-09-08T08:42:37;12.43;;;11.23;;
59504;SDS011;45321;53.200;5.814;2023-09-08T08:45:04;12.32;;;11.00;;
59504;SDS011;45321;53.200;5.814;2023-09-08T08:47:30;14.23;;;10.15;;
59504;SDS011;45321;53.200;5.814;2023-09-08T08:49:57;11.63;;;10.40;;
59504;SDS011;45321;53.200;5.814;2023-09-08T08:52:24;13.73;;;9.52;;
59504;SDS011;45321;53.200;5.814;2023-09-08T08:54:51;14.23;;;11.52;;
59504;SDS011;45321;53.200;5.814;2023-09-08T08:57:16;13.32;;;11.02;;
59504;SDS011;45321;53.200;5.814;2023-09-08T08:59:43;13.02;;;10.60;;
59504;SDS011;45321;53.200;5.814;2023-09-08T09:02:11;10.93;;;9.48;;
59504;SDS011;45321;53.200;5.814;2023-09-08T09:04:39;12.32;;;9.23;;
59504;SDS011;45321;53.200;5.814;2023-09-08T09:07:06;13.88;;;9.23;;
59504;SDS011;45321;53.200;5.814;2023-09-08T09:09:32;10.25;;;9.23;;
59504;SDS011;45321;53.200;5.814;2023-09-08T09:11:58;12.00;;;9.50;;
59504;SDS011;45321;53.200;5.814;2023-09-08T09:14:24;12.07;;;9.82;;
59504;SDS011;45321;53.200;5.814;2023-09-08T09:16:50;11.63;;;8.82;;
59504;SDS011;45321;53.200;5.814;2023-09-08T09:19:20;13.38;;;9.60;;
59504;SDS011;45321;53.200;5.814;2023-09-08T09:21:52;9.77;;;8.80;;
59504;SDS011;45321;53.200;5.814;2023-09-08T09:27:06;10.15;;;8.43;;
59504;SDS011;45321;53.200;5.814;2023-09-08T09:29:33;10.50;;;8.18;;
59504;SDS011;45321;53.200;5.814;2023-09-08T09:32:03;16.60;;;8.52;;
59504;SDS011;45321;53.200;5.814;2023-09-08T09:34:33;10.23;;;8.77;;
59504;SDS011;45321;53.200;5.814;2023-09-08T09:37:00;9.73;;;8.82;;
59504;SDS011;45321;53.200;5.814;2023-09-08T09:39:26;10.77;;;8.23;;
59504;SDS011;45321;53.200;5.814;2023-09-08T09:41:56;14.82;;;9.05;;
59504;SDS011;45321;53.200;5.814;2023-09-08T09:44:23;9.57;;;8.68;;
59504;SDS011;45321;53.200;5.814;2023-09-08T09:46:51;11.40;;;8.25;;
59504;SDS011;45321;53.200;5.814;2023-09-08T09:49:18;10.25;;;8.85;;
59504;SDS011;45321;53.200;5.814;2023-09-08T09:51:45;11.63;;;8.38;;
59504;SDS011;45321;53.200;5.814;2023-09-08T09:54:12;8.93;;;8.02;;
59504;SDS011;45321;53.200;5.814;2023-09-08T09:56:38;12.52;;;8.75;;
59504;SDS011;45321;53.200;5.814;2023-09-08T09:59:07;10.95;;;8.05;;
59504;SDS011;45321;53.200;5.814;2023-09-08T10:01:33;10.20;;;7.95;;
59504;SDS011;45321;53.200;5.814;2023-09-08T10:04:01;12.40;;;9.25;;
59504;SDS011;45321;53.200;5.814;2023-09-08T10:06:30;10.68;;;7.50;;
59504;SDS011;45321;53.200;5.814;2023-09-08T10:08:58;9.35;;;8.27;;
59504;SDS011;45321;53.200;5.814;2023-09-08T10:11:28;8.25;;;7.38;;
59504;SDS011;45321;53.200;5.814;2023-09-08T10:13:56;8.52;;;7.72;;
59504;SDS011;45321;53.200;5.814;2023-09-08T10:16:25;8.73;;;6.95;;
59504;SDS011;45321;53.200;5.814;2023-09-08T10:18:53;8.82;;;6.85;;
59504;SDS011;45321;53.200;5.814;2023-09-08T10:21:23;9.32;;;8.27;;
59504;SDS011;45321;53.200;5.814;2023-09-08T10:23:54;8.38;;;7.55;;
59504;SDS011;45321;53.200;5.814;2023-09-08T10:26:27;9.43;;;7.68;;
59504;SDS011;45321;53.200;5.814;2023-09-08T10:28:55;11.10;;;8.32;;
59504;SDS011;45321;53.200;5.814;2023-09-08T10:31:23;9.70;;;8.00;;
59504;SDS011;45321;53.200;5.814;2023-09-08T10:33:52;12.57;;;8.10;;
59504;SDS011;45321;53.200;5.814;2023-09-08T10:36:21;8.27;;;6.90;;
59504;SDS011;45321;53.200;5.814;2023-09-08T10:38:48;8.88;;;7.65;;
59504;SDS011;45321;53.200;5.814;2023-09-08T10:43:42;9.35;;;6.95;;
59504;SDS011;45321;53.200;5.814;2023-09-08T10:46:09;11.02;;;8.50;;
59504;SDS011;45321;53.200;5.814;2023-09-08T10:48:42;9.60;;;7.18;;
59504;SDS011;45321;53.200;5.814;2023-09-08T10:51:15;9.00;;;7.53;;
59504;SDS011;45321;53.200;5.814;2023-09-08T10:53:42;9.57;;;8.57;;
59504;SDS011;45321;53.200;5.814;2023-09-08T10:56:11;10.93;;;8.45;;
59504;SDS011;45321;53.200;5.814;2023-09-08T10:58:37;7.70;;;6.85;;
59504;SDS011;45321;53.200;5.814;2023-09-08T11:01:06;11.02;;;7.57;;
59504;SDS011;45321;53.200;5.814;2023-09-08T11:06:06;10.40;;;6.38;;
59504;SDS011;45321;53.200;5.814;2023-09-08T11:08:41;9.75;;;7.63;;
59504;SDS011;45321;53.200;5.814;2023-09-08T11:11:09;7.63;;;6.82;;
59504;SDS011;45321;53.200;5.814;2023-09-08T11:13:36;10.85;;;6.40;;
59504;SDS011;45321;53.200;5.814;2023-09-08T11:16:02;6.95;;;6.20;;
59504;SDS011;45321;53.200;5.814;2023-09-08T11:18:28;6.68;;;5.90;;
59504;SDS011;45321;53.200;5.814;2023-09-08T11:20:55;7.68;;;5.25;;
59504;SDS011;45321;53.200;5.814;2023-09-08T11:23:22;9.07;;;4.93;;
59504;SDS011;45321;53.200;5.814;2023-09-08T11:25:48;8.43;;;5.20;;
59504;SDS011;45321;53.200;5.814;2023-09-08T11:28:16;9.15;;;4.93;;
59504;SDS011;45321;53.200;5.814;2023-09-08T11:30:42;8.48;;;5.07;;
59504;SDS011;45321;53.200;5.814;2023-09-08T11:33:17;6.68;;;5.25;;
59504;SDS011;45321;53.200;5.814;2023-09-08T11:35:48;7.05;;;5.15;;
59504;SDS011;45321;53.200;5.814;2023-09-08T11:38:14;7.68;;;5.68;;
59504;SDS011;45321;53.200;5.814;2023-09-08T11:40:40;7.85;;;5.57;;
59504;SDS011;45321;53.200;5.814;2023-09-08T11:43:06;7.63;;;5.40;;
59504;SDS011;45321;53.200;5.814;2023-09-08T11:45:35;6.00;;;5.30;;
59504;SDS011;45321;53.200;5.814;2023-09-08T11:48:01;11.13;;;6.45;;
59504;SDS011;45321;53.200;5.814;2023-09-08T11:50:29;8.88;;;6.20;;
59504;SDS011;45321;53.200;5.814;2023-09-08T11:52:56;7.35;;;6.25;;
59504;SDS011;45321;53.200;5.814;2023-09-08T11:55:24;6.53;;;5.50;;
59504;SDS011;45321;53.200;5.814;2023-09-08T11:57:52;7.65;;;5.78;;
59504;SDS011;45321;53.200;5.814;2023-09-08T12:00:28;7.97;;;5.40;;
59504;SDS011;45321;53.200;5.814;2023-09-08T12:02:54;7.35;;;5.75;;
59504;SDS011;45321;53.200;5.814;2023-09-08T12:07:50;6.38;;;5.78;;
59504;SDS011;45321;53.200;5.814;2023-09-08T12:10:17;10.57;;;5.63;;
59504;SDS011;45321;53.200;5.814;2023-09-08T12:12:48;8.18;;;6.05;;
59504;SDS011;45321;53.200;5.814;2023-09-08T12:15:34;9.40;;;6.03;;
59504;SDS011;45321;53.200;5.814;2023-09-08T12:18:01;8.90;;;5.18;;
59504;SDS011;45321;53.200;5.814;2023-09-08T12:20:28;8.57;;;5.60;;
59504;SDS011;45321;53.200;5.814;2023-09-08T12:22:57;8.38;;;5.85;;
59504;SDS011;45321;53.200;5.814;2023-09-08T12:25:25;7.95;;;5.07;;
59504;SDS011;45321;53.200;5.814;2023-09-08T12:27:53;7.05;;;5.32;;
59504;SDS011;45321;53.200;5.814;2023-09-08T12:30:19;8.27;;;5.40;;
59504;SDS011;45321;53.200;5.814;2023-09-08T12:32:50;9.65;;;5.30;;
59504;SDS011;45321;53.200;5.814;2023-09-08T12:35:19;6.30;;;5.07;;
59504;SDS011;45321;53.200;5.814;2023-09-08T12:37:59;7.25;;;5.05;;
59504;SDS011;45321;53.200;5.814;2023-09-08T12:40:27;6.38;;;5.30;;
59504;SDS011;45321;53.200;5.814;2023-09-08T12:42:54;6.97;;;4.20;;
59504;SDS011;45321;53.200;5.814;2023-09-08T12:45:21;5.93;;;3.92;;
59504;SDS011;45321;53.200;5.814;2023-09-08T12:47:52;6.20;;;4.30;;
59504;SDS011;45321;53.200;5.814;2023-09-08T12:50:20;8.38;;;4.55;;
59504;SDS011;45321;53.200;5.814;2023-09-08T12:52:46;7.03;;;4.15;;
59504;SDS011;45321;53.200;5.814;2023-09-08T12:55:11;7.93;;;4.82;;
59504;SDS011;45321;53.200;5.814;2023-09-08T12:57:37;7.30;;;4.22;;
59504;SDS011;45321;53.200;5.814;2023-09-08T13:00:03;4.47;;;4.07;;
59504;SDS011;45321;53.200;5.814;2023-09-08T13:02:30;7.30;;;4.85;;
59504;SDS011;45321;53.200;5.814;2023-09-08T13:04:56;4.47;;;4.07;;
59504;SDS011;45321;53.200;5.814;2023-09-08T13:07:23;11.05;;;5.05;;
59504;SDS011;45321;53.200;5.814;2023-09-08T13:09:49;5.25;;;4.18;;
59504;SDS011;45321;53.200;5.814;2023-09-08T13:12:15;5.40;;;4.30;;
59504;SDS011;45321;53.200;5.814;2023-09-08T13:14:41;6.85;;;4.47;;
59504;SDS011;45321;53.200;5.814;2023-09-08T13:17:08;4.90;;;4.10;;
59504;SDS011;45321;53.200;5.814;2023-09-08T13:19:38;6.00;;;4.25;;
59504;SDS011;45321;53.200;5.814;2023-09-08T13:22:04;11.88;;;5.07;;
59504;SDS011;45321;53.200;5.814;2023-09-08T13:24:30;6.32;;;3.97;;
59504;SDS011;45321;53.200;5.814;2023-09-08T13:26:56;7.88;;;4.32;;
59504;SDS011;45321;53.200;5.814;2023-09-08T13:29:22;7.20;;;4.10;;
59504;SDS011;45321;53.200;5.814;2023-09-08T13:31:48;4.68;;;4.28;;
59504;SDS011;45321;53.200;5.814;2023-09-08T13:34:14;8.13;;;5.00;;
59504;SDS011;45321;53.200;5.814;2023-09-08T13:36:39;6.78;;;4.80;;
59504;SDS011;45321;53.200;5.814;2023-09-08T13:39:05;4.53;;;4.07;;
59504;SDS011;45321;53.200;5.814;2023-09-08T13:44:19;6.72;;;4.85;;
59504;SDS011;45321;53.200;5.814;2023-09-08T13:46:46;4.72;;;4.20;;
59504;SDS011;45321;53.200;5.814;2023-09-08T13:49:13;6.45;;;4.55;;
59504;SDS011;45321;53.200;5.814;2023-09-08T13:51:39;9.43;;;4.82;;
59504;SDS011;45321;53.200;5.814;2023-09-08T13:54:05;6.50;;;4.72;;
59504;SDS011;45321;53.200;5.814;2023-09-08T13:56:33;6.65;;;4.35;;
59504;SDS011;45321;53.200;5.814;2023-09-08T13:58:59;7.25;;;4.13;;
59504;SDS011;45321;53.200;5.814;2023-09-08T14:01:26;7.35;;;4.85;;
59504;SDS011;45321;53.200;5.814;2023-09-08T14:03:54;6.13;;;4.53;;
59504;SDS011;45321;53.200;5.814;2023-09-08T14:06:21;6.38;;;4.28;;
59504;SDS011;45321;53.200;5.814;2023-09-08T14:08:48;5.93;;;4.60;;
59504;SDS011;45321;53.200;5.814;2023-09-08T14:11:13;7.10;;;4.55;;
59504;SDS011;45321;53.200;5.814;2023-09-08T14:13:39;5.95;;;4.30;;
59504;SDS011;45321;53.200;5.814;2023-09-08T14:16:05;7.00;;;4.78;;
59504;SDS011;45321;53.200;5.814;2023-09-08T14:18:31;5.70;;;5.13;;
59504;SDS011;45321;53.200;5.814;2023-09-08T14:20:56;8.18;;;4.90;;
59504;SDS011;45321;53.200;5.814;2023-09-08T14:23:22;6.63;;;4.85;;
59504;SDS011;45321;53.200;5.814;2023-09-08T14:25:48;8.18;;;5.63;;
59504;SDS011;45321;53.200;5.814;2023-09-08T14:28:14;7.72;;;4.82;;
59504;SDS011;45321;53.200;5.814;2023-09-08T14:30:39;4.85;;;4.35;;
59504;SDS011;45321;53.200;5.814;2023-09-08T14:33:05;7.55;;;5.35;;
59504;SDS011;45321;53.200;5.814;2023-09-08T14:35:32;7.68;;;5.68;;
59504;SDS011;45321;53.200;5.814;2023-09-08T14:37:57;6.10;;;4.93;;
59504;SDS011;45321;53.200;5.814;2023-09-08T14:40:23;6.93;;;4.78;;
59504;SDS011;45321;53.200;5.814;2023-09-08T14:42:49;6.30;;;4.88;;
59504;SDS011;45321;53.200;5.814;2023-09-08T14:45:15;7.32;;;4.82;;